Time;durP1;ratioP1;P1;durP2;ratioP2;P2;SDS_P1;SDS_P2;PMS_P1;PMS_P2;Temp;Humidity;BMP_temperature;BMP_pressure;BME280_temperature;BME280_humidity;BME280_pressure;Samples;Min_cycle;Max_cycle;Signal;HPM_P1;HPM_P2
2022/07/22 00:02:14;;;;;;;7.40;4.60;;;;;;;;;;4983092;28;20563;-64
2022/07/22 00:04:39;;;;;;;8.23;4.20;;;;;;;;;;4986308;28;20045;-64
2022/07/22 00:07:05;;;;;;;10.07;4.82;;;;;;;;;;4984506;28;20434;-65
2022/07/22 00:09:30;;;;;;;6.97;4.72;;;;;;;;;;4986777;28;20050;-63
2022/07/22 00:11:56;;;;;;;8.60;4.78;;;;;;;;;;4989671;28;20054;-64
2022/07/22 00:14:21;;;;;;;8.13;4.70;;;;;;;;;;4985844;28;20129;-64
2022/07/22 00:16:46;;;;;;;6.35;4.55;;;;;;;;;;4984678;28;20034;-64
2022/07/22 00:19:12;;;;;;;7.25;4.80;;;;;;;;;;4979840;28;20035;-64
2022/07/22 00:21:38;;;;;;;8.68;4.45;;;;;;;;;;4987910;28;20059;-63
2022/07/22 00:24:04;;;;;;;11.15;4.88;;;;;;;;;;4997709;28;20144;-65
2022/07/22 00:26:29;;;;;;;8.18;4.90;;;;;;;;;;4985860;28;20046;-64
2022/07/22 00:28:55;;;;;;;8.63;5.07;;;;;;;;;;4984350;28;20049;-64
2022/07/22 00:31:20;;;;;;;8.25;4.70;;;;;;;;;;4986323;28;20034;-64
2022/07/22 00:33:46;;;;;;;7.07;4.45;;;;;;;;;;4987015;28;20486;-64
2022/07/22 00:36:11;;;;;;;7.72;4.68;;;;;;;;;;4979765;28;20237;-64
2022/07/22 00:38:38;;;;;;;10.75;4.80;;;;;;;;;;4982360;28;20050;-64
2022/07/22 00:41:03;;;;;;;5.65;4.22;;;;;;;;;;4981347;28;20042;-66
2022/07/22 00:43:52;;;;;;;8.00;4.88;;;;;;;;;;4982620;28;20228;-63
2022/07/22 00:46:17;;;;;;;8.20;4.85;;;;;;;;;;4982818;28;20133;-65
2022/07/22 00:48:43;;;;;;;5.93;4.35;;;;;;;;;;4984087;28;20138;-64
2022/07/22 00:51:08;;;;;;;7.90;4.60;;;;;;;;;;4978709;28;20120;-66
2022/07/22 00:53:34;;;;;;;8.48;5.20;;;;;;;;;;4986967;28;20488;-66
2022/07/22 00:56:00;;;;;;;9.43;4.55;;;;;;;;;;4983546;28;20523;-65
2022/07/22 00:58:25;;;;;;;9.48;4.20;;;;;;;;;;4981996;28;20041;-65
2022/07/22 01:00:51;;;;;;;7.50;4.88;;;;;;;;;;4982753;28;20483;-69
2022/07/22 01:03:16;;;;;;;8.68;4.88;;;;;;;;;;4985720;28;21620;-69
2022/07/22 01:05:42;;;;;;;7.68;4.70;;;;;;;;;;4983240;28;20073;-70
2022/07/22 01:08:07;;;;;;;7.75;4.72;;;;;;;;;;4980213;28;20527;-69
2022/07/22 01:10:33;;;;;;;10.50;4.97;;;;;;;;;;4976945;28;20042;-63
2022/07/22 01:12:58;;;;;;;8.10;4.85;;;;;;;;;;4977723;28;20037;-69
2022/07/22 01:15:24;;;;;;;8.35;4.50;;;;;;;;;;4976061;28;20051;-69
2022/07/22 01:17:49;;;;;;;7.20;4.90;;;;;;;;;;4977054;28;20090;-69
2022/07/22 01:20:15;;;;;;;10.18;4.85;;;;;;;;;;4977082;28;20100;-70
2022/07/22 01:22:40;;;;;;;10.27;4.97;;;;;;;;;;4974065;28;20125;-69
2022/07/22 01:25:06;;;;;;;11.10;5.35;;;;;;;;;;4975585;28;20034;-69
2022/07/22 01:27:31;;;;;;;9.60;5.30;;;;;;;;;;4972802;28;20694;-70
2022/07/22 01:29:57;;;;;;;9.27;4.82;;;;;;;;;;4971187;28;20558;-69
2022/07/22 01:32:22;;;;;;;7.30;4.55;;;;;;;;;;4971257;28;20107;-69
2022/07/22 01:34:48;;;;;;;8.07;4.50;;;;;;;;;;4978870;28;20058;-70
2022/07/22 01:37:13;;;;;;;7.32;5.05;;;;;;;;;;4975900;28;20042;-69
2022/07/22 01:39:38;;;;;;;10.60;5.68;;;;;;;;;;4975437;28;20077;-70
2022/07/22 01:42:04;;;;;;;11.30;5.00;;;;;;;;;;4978047;28;20050;-68
2022/07/22 01:44:31;;;;;;;7.38;5.43;;;;;;;;;;4973210;28;20038;-69
2022/07/22 01:46:58;;;;;;;12.98;5.45;;;;;;;;;;4976172;28;20121;-69
2022/07/22 01:49:24;;;;;;;8.10;5.35;;;;;;;;;;4976397;28;20039;-69
2022/07/22 01:51:49;;;;;;;10.75;5.25;;;;;;;;;;4976098;28;21531;-69
2022/07/22 01:54:15;;;;;;;9.35;5.25;;;;;;;;;;4977063;28;20061;-70
2022/07/22 01:56:40;;;;;;;8.40;5.60;;;;;;;;;;4974928;28;20133;-70
2022/07/22 01:59:07;;;;;;;7.68;4.93;;;;;;;;;;4973307;28;20054;-70
2022/07/22 02:01:32;;;;;;;9.57;5.50;;;;;;;;;;4977238;28;20053;-69
2022/07/22 02:03:58;;;;;;;8.98;5.20;;;;;;;;;;4976791;28;20481;-70
2022/07/22 02:06:23;;;;;;;7.90;5.13;;;;;;;;;;4978158;28;20159;-70
2022/07/22 02:08:48;;;;;;;10.52;5.30;;;;;;;;;;4976252;28;20074;-70
2022/07/22 02:11:14;;;;;;;7.03;4.53;;;;;;;;;;4974568;28;20156;-69
2022/07/22 02:13:39;;;;;;;9.38;5.28;;;;;;;;;;4975161;28;20387;-69
2022/07/22 02:16:05;;;;;;;9.15;5.32;;;;;;;;;;4977175;28;20072;-69
2022/07/22 02:18:30;;;;;;;8.27;5.07;;;;;;;;;;4971943;28;20089;-69
2022/07/22 02:20:56;;;;;;;11.90;5.30;;;;;;;;;;4972142;28;20054;-69
2022/07/22 02:23:21;;;;;;;8.48;4.78;;;;;;;;;;4975194;28;20601;-69
2022/07/22 02:25:46;;;;;;;9.68;4.82;;;;;;;;;;4971582;28;21599;-69
2022/07/22 02:28:12;;;;;;;9.15;5.03;;;;;;;;;;4975205;28;20038;-70
2022/07/22 02:30:38;;;;;;;10.07;5.40;;;;;;;;;;4979577;28;20486;-70
2022/07/22 02:33:04;;;;;;;9.77;5.55;;;;;;;;;;4977002;28;21757;-68
2022/07/22 02:35:29;;;;;;;9.45;4.97;;;;;;;;;;4973818;28;20803;-69
2022/07/22 02:37:55;;;;;;;7.65;5.15;;;;;;;;;;4971959;28;20141;-71
2022/07/22 02:40:20;;;;;;;10.52;5.47;;;;;;;;;;4976798;28;20061;-70
2022/07/22 02:42:46;;;;;;;7.53;5.18;;;;;;;;;;4975460;28;21003;-69
2022/07/22 02:45:11;;;;;;;17.80;5.28;;;;;;;;;;4974155;28;20111;-69
2022/07/22 02:47:50;;;;;;;7.18;4.82;;;;;;;;;;4973092;28;20143;-69
2022/07/22 02:50:16;;;;;;;9.13;5.47;;;;;;;;;;4973341;28;20062;-69
2022/07/22 02:52:42;;;;;;;11.35;5.20;;;;;;;;;;4976139;28;20400;-69
2022/07/22 02:55:08;;;;;;;7.97;4.82;;;;;;;;;;4972714;28;20109;-69
2022/07/22 02:57:34;;;;;;;9.82;5.45;;;;;;;;;;4976239;28;20051;-69
2022/07/22 03:00:00;;;;;;;7.82;5.38;;;;;;;;;;4972573;28;20043;-70
2022/07/22 03:02:25;;;;;;;8.65;5.15;;;;;;;;;;4974238;28;20121;-71
2022/07/22 03:04:51;;;;;;;10.18;5.38;;;;;;;;;;4973583;28;20026;-70
2022/07/22 03:07:16;;;;;;;7.70;5.03;;;;;;;;;;4971633;28;20034;-70
2022/07/22 03:09:42;;;;;;;6.95;4.95;;;;;;;;;;4972811;28;20129;-70
2022/07/22 03:12:07;;;;;;;8.50;4.93;;;;;;;;;;4976410;28;20149;-70
2022/07/22 03:14:33;;;;;;;8.65;5.72;;;;;;;;;;4977048;28;20101;-70
2022/07/22 03:16:58;;;;;;;10.50;5.55;;;;;;;;;;4977182;28;20053;-71
2022/07/22 03:19:24;;;;;;;6.80;4.75;;;;;;;;;;4975418;28;20069;-68
2022/07/22 03:21:49;;;;;;;10.77;4.95;;;;;;;;;;4977271;28;20484;-71
2022/07/22 03:24:14;;;;;;;6.43;4.90;;;;;;;;;;4972258;28;20092;-70
2022/07/22 03:26:40;;;;;;;6.53;4.50;;;;;;;;;;4978914;28;20054;-69
2022/07/22 03:29:05;;;;;;;5.53;4.55;;;;;;;;;;4975101;28;20054;-69
2022/07/22 03:31:31;;;;;;;10.52;4.75;;;;;;;;;;4974457;28;20030;-69
2022/07/22 03:33:56;;;;;;;6.60;5.00;;;;;;;;;;4975312;28;20084;-70
2022/07/22 03:36:22;;;;;;;6.55;4.93;;;;;;;;;;4973485;28;20140;-70
2022/07/22 03:38:47;;;;;;;7.15;4.57;;;;;;;;;;4973827;28;20084;-70
2022/07/22 03:41:13;;;;;;;8.93;4.90;;;;;;;;;;4977078;28;20052;-70
2022/07/22 03:43:38;;;;;;;9.00;4.72;;;;;;;;;;4974766;28;20038;-69
2022/07/22 03:46:03;;;;;;;6.22;4.72;;;;;;;;;;4972660;28;20034;-70
2022/07/22 03:48:29;;;;;;;8.82;4.95;;;;;;;;;;4972066;28;20054;-69
2022/07/22 03:50:54;;;;;;;7.05;5.30;;;;;;;;;;4969574;28;20038;-69
2022/07/22 03:53:20;;;;;;;8.32;5.22;;;;;;;;;;4969805;28;20093;-70
2022/07/22 03:55:46;;;;;;;6.30;4.65;;;;;;;;;;4966575;28;20039;-69
2022/07/22 03:58:11;;;;;;;7.15;5.10;;;;;;;;;;4975630;28;20114;-69
2022/07/22 04:00:37;;;;;;;7.88;4.65;;;;;;;;;;4972328;28;20120;-68
2022/07/22 04:03:02;;;;;;;10.90;5.40;;;;;;;;;;4971249;28;20055;-69
2022/07/22 04:05:28;;;;;;;9.82;5.07;;;;;;;;;;4971715;28;20081;-69
2022/07/22 04:07:53;;;;;;;6.80;4.35;;;;;;;;;;4969864;28;20322;-69
2022/07/22 04:10:18;;;;;;;7.53;4.68;;;;;;;;;;4973338;28;20039;-69
2022/07/22 04:12:44;;;;;;;17.15;6.05;;;;;;;;;;4969470;28;20054;-68
2022/07/22 04:15:09;;;;;;;9.02;4.80;;;;;;;;;;4969072;28;21035;-69
2022/07/22 04:17:35;;;;;;;7.18;5.20;;;;;;;;;;4973573;28;20069;-69
2022/07/22 04:20:00;;;;;;;8.52;4.93;;;;;;;;;;4967095;28;20050;-68
2022/07/22 04:22:29;;;;;;;9.38;5.20;;;;;;;;;;4971381;28;20480;-69
2022/07/22 04:24:54;;;;;;;8.27;5.07;;;;;;;;;;4970045;28;20054;-68
2022/07/22 04:27:19;;;;;;;8.02;5.55;;;;;;;;;;4967181;28;20685;-68
2022/07/22 04:29:45;;;;;;;7.65;5.43;;;;;;;;;;4970088;28;20046;-69
2022/07/22 04:32:10;;;;;;;12.55;6.25;;;;;;;;;;4970015;28;20504;-69
2022/07/22 04:34:36;;;;;;;10.60;5.43;;;;;;;;;;4971206;28;20117;-69
2022/07/22 04:37:01;;;;;;;8.07;5.53;;;;;;;;;;4970602;28;20027;-69
2022/07/22 04:39:27;;;;;;;8.65;5.47;;;;;;;;;;4970357;28;20100;-69
2022/07/22 04:41:52;;;;;;;10.45;5.72;;;;;;;;;;4971609;28;20057;-69
2022/07/22 04:44:18;;;;;;;6.65;5.00;;;;;;;;;;4972230;28;20511;-68
2022/07/22 04:46:43;;;;;;;7.18;4.95;;;;;;;;;;4969967;28;20062;-69
2022/07/22 04:49:08;;;;;;;10.55;5.80;;;;;;;;;;4971705;28;20030;-69
2022/07/22 04:51:34;;;;;;;8.40;5.25;;;;;;;;;;4969705;28;20665;-68
2022/07/22 04:53:59;;;;;;;7.15;5.28;;;;;;;;;;4971790;28;20136;-70
2022/07/22 04:56:25;;;;;;;9.23;6.00;;;;;;;;;;4975816;28;20489;-70
2022/07/22 04:58:51;;;;;;;7.88;5.45;;;;;;;;;;4975792;28;20677;-65
2022/07/22 05:01:16;;;;;;;6.85;5.25;;;;;;;;;;4976951;28;20022;-69
2022/07/22 05:03:42;;;;;;;6.90;5.45;;;;;;;;;;4972393;28;20061;-67
2022/07/22 05:06:08;;;;;;;9.02;6.07;;;;;;;;;;4972564;28;20050;-67
2022/07/22 05:08:33;;;;;;;20.95;6.93;;;;;;;;;;4975031;28;20142;-66
2022/07/22 05:10:59;;;;;;;10.70;6.07;;;;;;;;;;4978317;28;20096;-66
2022/07/22 05:13:24;;;;;;;8.07;5.60;;;;;;;;;;4977889;28;20038;-65
2022/07/22 05:15:50;;;;;;;9.32;6.03;;;;;;;;;;4980588;28;20046;-65
2022/07/22 05:18:16;;;;;;;8.73;6.05;;;;;;;;;;4977450;28;20047;-65
2022/07/22 05:20:41;;;;;;;8.07;5.90;;;;;;;;;;4968939;28;20050;-66
2022/07/22 05:23:07;;;;;;;11.60;6.35;;;;;;;;;;4973266;28;20144;-66
2022/07/22 05:25:32;;;;;;;8.93;6.38;;;;;;;;;;4974441;28;20284;-66
2022/07/22 05:27:57;;;;;;;8.82;6.47;;;;;;;;;;4974136;28;20048;-66
2022/07/22 05:30:23;;;;;;;9.00;6.13;;;;;;;;;;4975709;28;20552;-65
2022/07/22 05:32:49;;;;;;;9.07;6.13;;;;;;;;;;4976125;28;20108;-66
2022/07/22 05:35:14;;;;;;;11.35;6.57;;;;;;;;;;4973644;28;20057;-66
2022/07/22 05:37:40;;;;;;;9.20;6.57;;;;;;;;;;4972424;28;20100;-66
2022/07/22 05:40:06;;;;;;;9.25;6.45;;;;;;;;;;4970785;28;20719;-66
2022/07/22 05:42:32;;;;;;;10.35;7.05;;;;;;;;;;4976083;28;20485;-66
2022/07/22 05:44:57;;;;;;;10.10;7.28;;;;;;;;;;4971284;28;20046;-66
2022/07/22 05:47:22;;;;;;;10.85;7.72;;;;;;;;;;4974414;28;20042;-66
2022/07/22 05:49:48;;;;;;;12.85;7.47;;;;;;;;;;4973665;28;21229;-67
2022/07/22 05:52:13;;;;;;;12.27;7.97;;;;;;;;;;4975084;28;20042;-66
2022/07/22 05:54:39;;;;;;;12.70;7.75;;;;;;;;;;4976688;28;20046;-66
2022/07/22 05:57:08;;;;;;;11.45;7.82;;;;;;;;;;4971548;28;20077;-70
2022/07/22 05:59:33;;;;;;;12.63;8.70;;;;;;;;;;4981294;28;20189;-65
2022/07/22 06:01:59;;;;;;;10.40;6.88;;;;;;;;;;4975582;28;20414;-65
2022/07/22 06:04:24;;;;;;;9.45;7.15;;;;;;;;;;4978199;28;20026;-65
2022/07/22 06:06:50;;;;;;;9.68;6.75;;;;;;;;;;4979345;28;20133;-66
2022/07/22 06:09:15;;;;;;;9.65;7.15;;;;;;;;;;4972745;28;20512;-66
2022/07/22 06:11:41;;;;;;;13.75;7.68;;;;;;;;;;4975604;28;20060;-66
2022/07/22 06:14:06;;;;;;;10.52;6.90;;;;;;;;;;4974463;28;20065;-66
2022/07/22 06:16:32;;;;;;;10.55;7.55;;;;;;;;;;4976446;28;20073;-66
2022/07/22 06:18:58;;;;;;;10.93;7.15;;;;;;;;;;4975129;28;20093;-66
2022/07/22 06:21:23;;;;;;;10.18;6.43;;;;;;;;;;4972269;28;20050;-65
2022/07/22 06:23:49;;;;;;;9.77;6.78;;;;;;;;;;4973430;28;20058;-67
2022/07/22 06:26:14;;;;;;;8.43;6.60;;;;;;;;;;4974222;28;20440;-66
2022/07/22 06:28:39;;;;;;;7.63;5.88;;;;;;;;;;4978408;28;20041;-67
2022/07/22 06:31:05;;;;;;;7.35;5.38;;;;;;;;;;4974321;28;20061;-67
2022/07/22 06:33:33;;;;;;;9.77;5.50;;;;;;;;;;4971847;28;20120;-67
2022/07/22 06:35:58;;;;;;;8.50;5.65;;;;;;;;;;4972336;28;20051;-67
2022/07/22 06:38:24;;;;;;;11.20;5.47;;;;;;;;;;4970756;28;20069;-65
2022/07/22 06:40:49;;;;;;;9.35;5.93;;;;;;;;;;4973136;28;20054;-66
2022/07/22 06:43:15;;;;;;;9.75;5.80;;;;;;;;;;4979177;28;20030;-66
2022/07/22 06:45:40;;;;;;;7.88;5.97;;;;;;;;;;4981096;28;20046;-66
2022/07/22 06:48:05;;;;;;;7.32;4.95;;;;;;;;;;4977920;28;20161;-65
2022/07/22 06:50:31;;;;;;;8.43;5.45;;;;;;;;;;4979560;28;20700;-65
2022/07/22 06:52:56;;;;;;;8.88;6.05;;;;;;;;;;4980031;28;20068;-65
2022/07/22 06:55:21;;;;;;;7.55;5.43;;;;;;;;;;4977722;28;20030;-66
2022/07/22 06:57:47;;;;;;;7.60;5.45;;;;;;;;;;4977216;28;20073;-65
2022/07/22 07:00:13;;;;;;;8.20;5.53;;;;;;;;;;4976044;28;20054;-65
2022/07/22 07:02:39;;;;;;;8.90;5.65;;;;;;;;;;4974331;28;20045;-65
2022/07/22 07:05:05;;;;;;;7.70;5.53;;;;;;;;;;4976558;28;20050;-65
2022/07/22 07:07:30;;;;;;;15.60;5.20;;;;;;;;;;4977147;28;20041;-65
2022/07/22 07:09:55;;;;;;;8.27;5.60;;;;;;;;;;4980880;28;20047;-64
2022/07/22 07:12:21;;;;;;;7.60;5.10;;;;;;;;;;4973627;28;20057;-65
2022/07/22 07:14:46;;;;;;;6.57;4.78;;;;;;;;;;4973786;28;20045;-65
2022/07/22 07:17:12;;;;;;;6.55;5.30;;;;;;;;;;4974218;28;20042;-66
2022/07/22 07:19:37;;;;;;;6.65;4.93;;;;;;;;;;4977136;28;20568;-67
2022/07/22 07:22:02;;;;;;;6.68;4.93;;;;;;;;;;4975579;28;20077;-67
2022/07/22 07:24:28;;;;;;;6.90;4.85;;;;;;;;;;4978620;28;20134;-65
2022/07/22 07:26:53;;;;;;;6.88;4.40;;;;;;;;;;4980147;28;20050;-65
2022/07/22 07:29:18;;;;;;;6.43;4.10;;;;;;;;;;4978823;28;20398;-65
2022/07/22 07:31:44;;;;;;;4.55;3.65;;;;;;;;;;4976791;28;20038;-64
2022/07/22 07:34:09;;;;;;;5.68;4.07;;;;;;;;;;4977962;28;20387;-64
2022/07/22 07:36:35;;;;;;;5.60;3.78;;;;;;;;;;4979204;28;20056;-65
2022/07/22 07:39:00;;;;;;;6.25;3.83;;;;;;;;;;4975822;28;20116;-65
2022/07/22 07:41:25;;;;;;;6.22;3.95;;;;;;;;;;4971803;28;20073;-65
2022/07/22 07:43:51;;;;;;;5.22;3.58;;;;;;;;;;4972026;28;20427;-64
2022/07/22 07:46:16;;;;;;;6.30;3.90;;;;;;;;;;4963594;28;20093;-65
2022/07/22 07:48:42;;;;;;;4.60;3.78;;;;;;;;;;4985062;28;20042;-65
2022/07/22 07:51:08;;;;;;;4.90;3.70;;;;;;;;;;4986980;28;20062;-66
2022/07/22 07:53:33;;;;;;;4.63;3.90;;;;;;;;;;4981048;28;20093;-65
2022/07/22 07:55:59;;;;;;;5.28;4.13;;;;;;;;;;4987121;28;20053;-65
2022/07/22 07:58:24;;;;;;;4.53;3.15;;;;;;;;;;4985882;28;20038;-65
2022/07/22 08:00:50;;;;;;;4.45;3.65;;;;;;;;;;4986254;28;20058;-65
2022/07/22 08:03:15;;;;;;;7.13;4.18;;;;;;;;;;4987138;28;20057;-65
2022/07/22 08:05:41;;;;;;;6.50;3.90;;;;;;;;;;4985647;28;20046;-65
2022/07/22 08:08:07;;;;;;;5.55;3.75;;;;;;;;;;4985528;28;20463;-65
2022/07/22 08:10:33;;;;;;;3.83;3.42;;;;;;;;;;4984484;28;20029;-66
2022/07/22 08:12:59;;;;;;;4.30;3.70;;;;;;;;;;4984903;28;20050;-66
2022/07/22 08:15:26;;;;;;;5.78;3.80;;;;;;;;;;4982600;28;20475;-66
2022/07/22 08:17:52;;;;;;;5.97;3.47;;;;;;;;;;4988076;28;20126;-65
2022/07/22 08:20:18;;;;;;;4.28;3.33;;;;;;;;;;4985008;28;20101;-65
2022/07/22 08:22:43;;;;;;;6.47;3.75;;;;;;;;;;4984367;28;20034;-65
2022/07/22 08:25:08;;;;;;;5.93;3.60;;;;;;;;;;4982160;28;20121;-65
2022/07/22 08:27:35;;;;;;;3.92;3.28;;;;;;;;;;4989106;28;20046;-64
2022/07/22 08:30:04;;;;;;;4.05;3.58;;;;;;;;;;4987287;28;20046;-65
2022/07/22 08:32:29;;;;;;;7.72;3.78;;;;;;;;;;4988901;28;20038;-62
2022/07/22 08:34:55;;;;;;;5.85;4.35;;;;;;;;;;4989948;28;20089;-62
2022/07/22 08:37:20;;;;;;;6.80;5.10;;;;;;;;;;4989100;28;20019;-61
2022/07/22 08:39:46;;;;;;;9.00;4.15;;;;;;;;;;4987848;28;20039;-61
2022/07/22 08:42:13;;;;;;;6.63;4.38;;;;;;;;;;4987207;28;20134;-62
2022/07/22 08:44:39;;;;;;;10.20;4.60;;;;;;;;;;4987019;28;20101;-63
2022/07/22 08:47:05;;;;;;;10.48;4.47;;;;;;;;;;4984940;28;20082;-62
2022/07/22 08:49:30;;;;;;;6.47;4.65;;;;;;;;;;4988143;28;20068;-63
2022/07/22 08:51:56;;;;;;;6.38;4.28;;;;;;;;;;4989636;28;20081;-64
2022/07/22 08:54:21;;;;;;;6.13;4.20;;;;;;;;;;4988887;28;20034;-63
2022/07/22 08:56:48;;;;;;;8.35;4.93;;;;;;;;;;4988925;28;20511;-62
2022/07/22 08:59:14;;;;;;;8.35;4.70;;;;;;;;;;4988249;28;20473;-64
2022/07/22 09:02:02;;;;;;;11.80;4.80;;;;;;;;;;4985478;28;20125;-64
2022/07/22 09:04:27;;;;;;;5.13;3.97;;;;;;;;;;4990675;28;20050;-65
2022/07/22 09:06:53;;;;;;;6.32;4.75;;;;;;;;;;4989327;28;20074;-63
2022/07/22 09:09:30;;;;;;;8.38;4.70;;;;;;;;;;4986504;28;20674;-63
2022/07/22 09:12:06;;;;;;;6.70;4.47;;;;;;;;;;4986921;28;20078;-62
2022/07/22 09:14:52;;;;;;;7.53;5.18;;;;;;;;;;4986891;28;20385;-63
2022/07/22 09:17:35;;;;;;;9.88;5.60;;;;;;;;;;4984441;28;20051;-62
2022/07/22 09:20:04;;;;;;;6.45;5.35;;;;;;;;;;4990291;28;20054;-62
2022/07/22 09:22:40;;;;;;;8.52;4.75;;;;;;;;;;4989154;28;20037;-62
2022/07/22 09:25:22;;;;;;;5.68;5.03;;;;;;;;;;4984619;28;20062;-63
2022/07/22 09:27:50;;;;;;;6.95;4.75;;;;;;;;;;4986757;28;20574;-62
2022/07/22 09:30:18;;;;;;;9.27;5.03;;;;;;;;;;4988318;28;20098;-62
2022/07/22 09:32:45;;;;;;;9.00;5.40;;;;;;;;;;4986201;28;20073;-62
2022/07/22 09:35:11;;;;;;;5.72;4.82;;;;;;;;;;4985045;28;20054;-62
2022/07/22 09:37:54;;;;;;;9.85;5.00;;;;;;;;;;4988068;28;20045;-62
2022/07/22 09:40:31;;;;;;;8.30;5.00;;;;;;;;;;4985113;28;20046;-62
2022/07/22 09:42:59;;;;;;;8.38;5.70;;;;;;;;;;4989153;28;20038;-62
2022/07/22 09:45:30;;;;;;;9.52;5.18;;;;;;;;;;4983974;28;20085;-64
2022/07/22 09:47:58;;;;;;;8.98;5.20;;;;;;;;;;4988256;28;20060;-62
2022/07/22 09:50:26;;;;;;;7.82;5.00;;;;;;;;;;4987403;28;20073;-62
2022/07/22 09:52:53;;;;;;;5.75;4.97;;;;;;;;;;4991199;28;20038;-63
2022/07/22 09:55:21;;;;;;;6.75;5.18;;;;;;;;;;4988762;28;20673;-63
2022/07/22 09:57:47;;;;;;;7.30;4.88;;;;;;;;;;4987954;28;20058;-62
2022/07/22 10:00:16;;;;;;;6.28;4.88;;;;;;;;;;4987476;28;20092;-62
2022/07/22 10:02:47;;;;;;;7.80;4.20;;;;;;;;;;4986444;28;20047;-62
2022/07/22 10:05:14;;;;;;;11.73;5.40;;;;;;;;;;4989654;28;20050;-62
2022/07/22 10:07:44;;;;;;;10.77;5.60;;;;;;;;;;4985809;28;20057;-62
2022/07/22 10:10:14;;;;;;;6.60;5.05;;;;;;;;;;4986000;28;20034;-62
2022/07/22 10:12:40;;;;;;;7.50;4.85;;;;;;;;;;4990328;28;20050;-62
2022/07/22 10:15:07;;;;;;;7.80;4.78;;;;;;;;;;4988874;28;20046;-62
2022/07/22 10:17:35;;;;;;;8.07;4.70;;;;;;;;;;4985719;28;20046;-63
2022/07/22 10:20:00;;;;;;;10.00;4.63;;;;;;;;;;4984852;28;20165;-68
2022/07/22 10:22:38;;;;;;;5.82;4.28;;;;;;;;;;4988129;28;20157;-64
2022/07/22 10:25:05;;;;;;;12.55;4.90;;;;;;;;;;4984434;28;20054;-63
2022/07/22 10:27:48;;;;;;;8.48;5.22;;;;;;;;;;4987767;28;20046;-62
2022/07/22 10:30:16;;;;;;;7.68;4.70;;;;;;;;;;4983858;28;20109;-62
2022/07/22 10:32:42;;;;;;;6.22;4.55;;;;;;;;;;4989601;28;20077;-62
2022/07/22 10:35:19;;;;;;;6.38;4.63;;;;;;;;;;4989334;28;20090;-63
2022/07/22 10:37:44;;;;;;;6.60;5.03;;;;;;;;;;4990010;28;20030;-62
2022/07/22 10:40:24;;;;;;;7.50;4.40;;;;;;;;;;4991589;28;20104;-63
2022/07/22 10:43:06;;;;;;;6.25;3.88;;;;;;;;;;4992147;28;20050;-63
2022/07/22 10:45:36;;;;;;;6.35;5.20;;;;;;;;;;4986330;28;20488;-63
2022/07/22 10:48:09;;;;;;;7.60;4.45;;;;;;;;;;4987926;28;20050;-63
2022/07/22 10:50:37;;;;;;;7.53;4.97;;;;;;;;;;4987839;28;20941;-63
2022/07/22 10:53:08;;;;;;;10.75;4.97;;;;;;;;;;4995019;28;20047;-63
2022/07/22 10:55:35;;;;;;;9.27;5.03;;;;;;;;;;4989294;28;20057;-63
2022/07/22 10:58:20;;;;;;;9.80;5.00;;;;;;;;;;4988496;28;20321;-63
2022/07/22 11:00:46;;;;;;;7.18;4.60;;;;;;;;;;4987518;28;20038;-63
2022/07/22 11:03:12;;;;;;;11.30;6.22;;;;;;;;;;4993939;28;20105;-63
2022/07/22 11:05:37;;;;;;;6.22;4.43;;;;;;;;;;4984725;28;20042;-62
2022/07/22 11:08:08;;;;;;;7.68;4.40;;;;;;;;;;4991268;28;20089;-62
2022/07/22 11:10:34;;;;;;;6.05;4.07;;;;;;;;;;4988005;28;20113;-63
2022/07/22 11:12:59;;;;;;;8.50;3.92;;;;;;;;;;4992329;28;20133;-64
2022/07/22 11:15:26;;;;;;;9.05;4.72;;;;;;;;;;4984277;28;20075;-62
2022/07/22 11:17:56;;;;;;;8.18;4.65;;;;;;;;;;4983522;28;20038;-62
2022/07/22 11:20:21;;;;;;;7.25;4.10;;;;;;;;;;4988789;28;20046;-62
2022/07/22 11:22:47;;;;;;;8.50;4.45;;;;;;;;;;4976111;28;20054;-63
2022/07/22 11:25:14;;;;;;;7.07;4.00;;;;;;;;;;4969423;28;20125;-62
2022/07/22 11:27:39;;;;;;;7.70;4.05;;;;;;;;;;4969628;28;20080;-62
2022/07/22 11:30:08;;;;;;;8.32;4.00;;;;;;;;;;4983792;28;20038;-62
2022/07/22 11:32:41;;;;;;;9.05;4.38;;;;;;;;;;4987100;28;20126;-62
2022/07/22 11:35:11;;;;;;;5.20;3.90;;;;;;;;;;4985936;28;20500;-62
2022/07/22 11:37:37;;;;;;;5.00;3.92;;;;;;;;;;4984524;28;20039;-62
2022/07/22 11:40:05;;;;;;;7.78;4.28;;;;;;;;;;4984797;28;20064;-63
2022/07/22 11:42:31;;;;;;;7.57;3.90;;;;;;;;;;4984959;28;20038;-62
2022/07/22 11:44:57;;;;;;;11.65;3.85;;;;;;;;;;4988739;28;20022;-63
2022/07/22 11:47:23;;;;;;;5.68;3.80;;;;;;;;;;4985745;28;20074;-62
2022/07/22 11:49:48;;;;;;;6.80;3.63;;;;;;;;;;4987738;28;20089;-62
2022/07/22 11:52:14;;;;;;;6.50;3.60;;;;;;;;;;4984098;28;20062;-63
2022/07/22 11:54:40;;;;;;;6.03;3.42;;;;;;;;;;4984801;28;20030;-63
2022/07/22 11:57:06;;;;;;;3.63;3.25;;;;;;;;;;4984884;28;20030;-62
2022/07/22 11:59:34;;;;;;;4.65;3.28;;;;;;;;;;4989068;28;20045;-62
2022/07/22 12:02:00;;;;;;;6.28;3.60;;;;;;;;;;4987315;28;20047;-62
2022/07/22 12:04:27;;;;;;;7.60;3.53;;;;;;;;;;4980909;28;20046;-63
2022/07/22 12:06:54;;;;;;;6.07;3.63;;;;;;;;;;4969659;28;20054;-64
2022/07/22 12:09:21;;;;;;;4.40;3.50;;;;;;;;;;4991094;28;20042;-65
2022/07/22 12:11:50;;;;;;;5.30;3.65;;;;;;;;;;4991914;28;20465;-64
2022/07/22 12:14:21;;;;;;;8.48;3.95;;;;;;;;;;4988564;28;20054;-64
2022/07/22 12:16:57;;;;;;;4.47;3.47;;;;;;;;;;4987624;28;20081;-66
2022/07/22 12:19:24;;;;;;;5.82;3.40;;;;;;;;;;4990009;28;20043;-67
2022/07/22 12:22:00;;;;;;;5.45;3.03;;;;;;;;;;4992109;28;20046;-66
2022/07/22 12:24:39;;;;;;;5.90;3.13;;;;;;;;;;4991296;28;20476;-66
2022/07/22 12:27:12;;;;;;;6.88;3.30;;;;;;;;;;4967988;28;20062;-65
2022/07/22 12:29:37;;;;;;;5.43;3.00;;;;;;;;;;4981207;28;20113;-65
2022/07/22 12:32:23;;;;;;;3.35;2.80;;;;;;;;;;4988670;28;20464;-65
2022/07/22 12:35:06;;;;;;;4.38;3.22;;;;;;;;;;4982011;28;20054;-65
2022/07/22 12:37:40;;;;;;;6.68;3.60;;;;;;;;;;4984147;28;20046;-66
2022/07/22 12:40:18;;;;;;;7.30;3.75;;;;;;;;;;4985245;28;20061;-66
2022/07/22 12:42:58;;;;;;;8.38;3.35;;;;;;;;;;4986668;28;20034;-65
2022/07/22 12:45:26;;;;;;;3.75;3.38;;;;;;;;;;4989136;28;20109;-65
2022/07/22 12:48:00;;;;;;;5.32;3.75;;;;;;;;;;4988859;28;20539;-65
2022/07/22 12:50:42;;;;;;;6.63;3.40;;;;;;;;;;4994899;28;20042;-65
2022/07/22 12:53:14;;;;;;;;;;;;;;;;;;4990179;28;20097;-65
2022/07/22 12:55:45;;;;;;;5.50;3.92;;;;;;;;;;4991361;28;19918;-65
2022/07/22 12:58:12;;;;;;;4.78;3.80;;;;;;;;;;4990786;28;20185;-65
2022/07/22 13:00:44;;;;;;;6.20;3.65;;;;;;;;;;4991860;28;20076;-64
2022/07/22 13:03:09;;;;;;;8.32;3.80;;;;;;;;;;4991976;28;20026;-64
2022/07/22 13:05:35;;;;;;;4.68;3.60;;;;;;;;;;4972103;28;20109;-65
2022/07/22 13:08:01;;;;;;;6.55;4.10;;;;;;;;;;4999388;28;20046;-65
2022/07/22 13:10:27;;;;;;;5.93;3.67;;;;;;;;;;4991389;28;20038;-65
2022/07/22 13:12:53;;;;;;;7.35;3.95;;;;;;;;;;4988421;28;20050;-65
2022/07/22 13:15:19;;;;;;;5.93;3.80;;;;;;;;;;4995340;28;20421;-65
2022/07/22 13:17:45;;;;;;;5.05;3.88;;;;;;;;;;4991512;28;20093;-63
2022/07/22 13:20:13;;;;;;;5.82;3.75;;;;;;;;;;4990942;28;20129;-65
2022/07/22 13:22:39;;;;;;;5.68;4.00;;;;;;;;;;4992022;28;20068;-65
2022/07/22 13:25:05;;;;;;;7.25;4.05;;;;;;;;;;4989443;28;20485;-65
2022/07/22 13:27:31;;;;;;;6.50;3.95;;;;;;;;;;4990237;28;20046;-65
2022/07/22 13:29:57;;;;;;;6.65;4.10;;;;;;;;;;4993172;28;20030;-65
2022/07/22 13:32:22;;;;;;;6.03;4.28;;;;;;;;;;4993217;28;21471;-67
2022/07/22 13:34:48;;;;;;;4.78;3.50;;;;;;;;;;4988066;28;20508;-66
2022/07/22 13:37:13;;;;;;;5.00;3.97;;;;;;;;;;4985122;28;20046;-64
2022/07/22 13:39:40;;;;;;;4.50;3.40;;;;;;;;;;4979851;28;20467;-62
2022/07/22 13:42:06;;;;;;;5.32;3.70;;;;;;;;;;4968658;28;20046;-65
2022/07/22 13:44:32;;;;;;;5.50;3.80;;;;;;;;;;4984108;28;21579;-65
2022/07/22 13:46:58;;;;;;;6.03;3.92;;;;;;;;;;4988976;28;20408;-63
2022/07/22 13:49:24;;;;;;;4.20;3.83;;;;;;;;;;4991589;28;20149;-64
2022/07/22 13:51:51;;;;;;;5.90;4.03;;;;;;;;;;4984834;28;20129;-62
2022/07/22 13:54:17;;;;;;;4.25;3.58;;;;;;;;;;4984028;28;20548;-63
2022/07/22 13:56:44;;;;;;;6.07;3.70;;;;;;;;;;4987375;28;20049;-63
2022/07/22 13:59:10;;;;;;;5.45;4.20;;;;;;;;;;4988761;28;20057;-63
2022/07/22 14:01:37;;;;;;;5.95;4.53;;;;;;;;;;4986662;28;20038;-63
2022/07/22 14:04:04;;;;;;;7.50;4.50;;;;;;;;;;4988167;28;20050;-63
2022/07/22 14:06:29;;;;;;;5.68;3.97;;;;;;;;;;4987283;28;20030;-64
2022/07/22 14:08:54;;;;;;;7.05;4.22;;;;;;;;;;4985963;28;20393;-63
2022/07/22 14:11:20;;;;;;;3.55;3.25;;;;;;;;;;4985246;28;20069;-64
2022/07/22 14:13:45;;;;;;;5.10;4.00;;;;;;;;;;4982828;28;20089;-64
2022/07/22 14:16:44;;;;;;;5.80;4.03;;;;;;;;;;4987659;28;20121;-63
2022/07/22 14:19:08;;;;;;;7.05;3.85;;;;;;;;;;4985163;28;20050;-63
2022/07/22 14:21:35;;;;;;;5.15;3.60;;;;;;;;;;4983773;28;20041;-64
2022/07/22 14:24:01;;;;;;;4.63;3.45;;;;;;;;;;4980205;28;20039;-63
2022/07/22 14:26:27;;;;;;;4.43;3.83;;;;;;;;;;4989932;28;20047;-62
2022/07/22 14:28:53;;;;;;;6.47;3.70;;;;;;;;;;4983365;28;20050;-62
2022/07/22 14:31:19;;;;;;;4.15;3.67;;;;;;;;;;4983582;28;20134;-62
2022/07/22 14:33:45;;;;;;;3.80;3.50;;;;;;;;;;4983205;28;20052;-61
2022/07/22 14:36:11;;;;;;;7.40;4.00;;;;;;;;;;4985110;28;20041;-60
2022/07/22 14:38:36;;;;;;;4.90;3.90;;;;;;;;;;4982263;28;20046;-61
2022/07/22 14:41:01;;;;;;;5.55;3.75;;;;;;;;;;4983366;28;20046;-61